sensor_id;sensor_type;location;lat;lon;timestamp;P1;durP1;ratioP1;P2;durP2;ratioP2
21675;SDS011;10999;51.332;9.458;2023-03-14T00:00:22;3.05;;;1.10;;
21675;SDS011;10999;51.332;9.458;2023-03-14T00:02:52;4.25;;;1.05;;
21675;SDS011;10999;51.332;9.458;2023-03-14T00:05:19;6.07;;;1.75;;
21675;SDS011;10999;51.332;9.458;2023-03-14T00:07:46;3.55;;;0.60;;
21675;SDS011;10999;51.332;9.458;2023-03-14T00:10:13;2.03;;;0.77;;
21675;SDS011;10999;51.332;9.458;2023-03-14T00:12:41;3.10;;;0.95;;
21675;SDS011;10999;51.332;9.458;2023-03-14T00:15:08;4.47;;;1.00;;
21675;SDS011;10999;51.332;9.458;2023-03-14T00:17:35;5.00;;;0.90;;
21675;SDS011;10999;51.332;9.458;2023-03-14T00:20:04;2.67;;;0.90;;
21675;SDS011;10999;51.332;9.458;2023-03-14T00:22:40;6.35;;;1.40;;
21675;SDS011;10999;51.332;9.458;2023-03-14T00:25:08;3.70;;;0.82;;
21675;SDS011;10999;51.332;9.458;2023-03-14T00:27:36;2.10;;;0.95;;
21675;SDS011;10999;51.332;9.458;2023-03-14T00:30:03;3.75;;;0.80;;
21675;SDS011;10999;51.332;9.458;2023-03-14T00:32:31;3.67;;;1.00;;
21675;SDS011;10999;51.332;9.458;2023-03-14T00:34:57;2.55;;;0.88;;
21675;SDS011;10999;51.332;9.458;2023-03-14T00:37:24;2.15;;;0.70;;
21675;SDS011;10999;51.332;9.458;2023-03-14T00:39:51;5.35;;;0.90;;
21675;SDS011;10999;51.332;9.458;2023-03-14T00:42:18;2.17;;;0.80;;
21675;SDS011;10999;51.332;9.458;2023-03-14T00:44:45;2.75;;;0.65;;
21675;SDS011;10999;51.332;9.458;2023-03-14T00:47:11;3.13;;;1.33;;
21675;SDS011;10999;51.332;9.458;2023-03-14T00:49:38;2.92;;;0.75;;
21675;SDS011;10999;51.332;9.458;2023-03-14T00:52:05;3.97;;;1.08;;
21675;SDS011;10999;51.332;9.458;2023-03-14T00:54:31;1.65;;;0.68;;
21675;SDS011;10999;51.332;9.458;2023-03-14T00:56:58;2.58;;;0.80;;
21675;SDS011;10999;51.332;9.458;2023-03-14T00:59:25;3.00;;;0.60;;
21675;SDS011;10999;51.332;9.458;2023-03-14T01:01:52;1.98;;;0.70;;
21675;SDS011;10999;51.332;9.458;2023-03-14T01:04:18;1.77;;;0.60;;
21675;SDS011;10999;51.332;9.458;2023-03-14T01:06:45;3.10;;;0.77;;
21675;SDS011;10999;51.332;9.458;2023-03-14T01:09:12;3.85;;;0.70;;
21675;SDS011;10999;51.332;9.458;2023-03-14T01:11:38;3.40;;;0.50;;
21675;SDS011;10999;51.332;9.458;2023-03-14T01:14:05;3.70;;;0.60;;
21675;SDS011;10999;51.332;9.458;2023-03-14T01:16:32;3.78;;;0.70;;
21675;SDS011;10999;51.332;9.458;2023-03-14T01:19:00;1.63;;;0.50;;
21675;SDS011;10999;51.332;9.458;2023-03-14T01:21:29;2.00;;;0.60;;
21675;SDS011;10999;51.332;9.458;2023-03-14T01:23:58;1.52;;;0.50;;
21675;SDS011;10999;51.332;9.458;2023-03-14T01:26:26;1.70;;;0.57;;
21675;SDS011;10999;51.332;9.458;2023-03-14T01:28:56;1.92;;;0.60;;
21675;SDS011;10999;51.332;9.458;2023-03-14T01:31:23;5.18;;;0.90;;
21675;SDS011;10999;51.332;9.458;2023-03-14T01:33:51;3.50;;;1.02;;
21675;SDS011;10999;51.332;9.458;2023-03-14T01:36:18;3.70;;;0.90;;
21675;SDS011;10999;51.332;9.458;2023-03-14T01:38:45;2.78;;;0.90;;
21675;SDS011;10999;51.332;9.458;2023-03-14T01:41:14;4.50;;;1.08;;
21675;SDS011;10999;51.332;9.458;2023-03-14T01:43:43;3.63;;;0.98;;
21675;SDS011;10999;51.332;9.458;2023-03-14T01:46:26;3.10;;;0.90;;
21675;SDS011;10999;51.332;9.458;2023-03-14T01:49:21;2.70;;;1.00;;
21675;SDS011;10999;51.332;9.458;2023-03-14T01:51:59;5.05;;;1.00;;
21675;SDS011;10999;51.332;9.458;2023-03-14T01:54:43;4.13;;;1.75;;
21675;SDS011;10999;51.332;9.458;2023-03-14T01:57:16;2.60;;;1.00;;
21675;SDS011;10999;51.332;9.458;2023-03-14T02:00:08;5.30;;;1.48;;
21675;SDS011;10999;51.332;9.458;2023-03-14T02:02:38;3.03;;;1.13;;
21675;SDS011;10999;51.332;9.458;2023-03-14T02:05:08;4.82;;;1.40;;
21675;SDS011;10999;51.332;9.458;2023-03-14T02:07:38;4.78;;;1.55;;
21675;SDS011;10999;51.332;9.458;2023-03-14T02:10:12;3.90;;;1.20;;
21675;SDS011;10999;51.332;9.458;2023-03-14T02:12:42;3.17;;;1.20;;
21675;SDS011;10999;51.332;9.458;2023-03-14T02:15:09;4.63;;;1.40;;
21675;SDS011;10999;51.332;9.458;2023-03-14T02:17:36;4.50;;;1.40;;
21675;SDS011;10999;51.332;9.458;2023-03-14T02:20:13;4.35;;;1.45;;
21675;SDS011;10999;51.332;9.458;2023-03-14T02:22:59;5.60;;;2.17;;
21675;SDS011;10999;51.332;9.458;2023-03-14T02:25:29;3.78;;;1.40;;
21675;SDS011;10999;51.332;9.458;2023-03-14T02:28:11;4.28;;;1.40;;
21675;SDS011;10999;51.332;9.458;2023-03-14T02:30:39;2.88;;;1.42;;
21675;SDS011;10999;51.332;9.458;2023-03-14T02:33:08;4.13;;;1.27;;
21675;SDS011;10999;51.332;9.458;2023-03-14T02:40:59;13.50;;;2.00;;
21675;SDS011;10999;51.332;9.458;2023-03-14T02:43:26;6.68;;;1.85;;
21675;SDS011;10999;51.332;9.458;2023-03-14T02:45:53;4.20;;;1.30;;
21675;SDS011;10999;51.332;9.458;2023-03-14T02:48:28;5.32;;;1.65;;
21675;SDS011;10999;51.332;9.458;2023-03-14T02:51:01;3.50;;;1.35;;
21675;SDS011;10999;51.332;9.458;2023-03-14T02:53:32;6.82;;;1.98;;
21675;SDS011;10999;51.332;9.458;2023-03-14T02:56:01;4.68;;;1.60;;
21675;SDS011;10999;51.332;9.458;2023-03-14T02:58:28;6.15;;;1.73;;
21675;SDS011;10999;51.332;9.458;2023-03-14T03:00:55;5.28;;;1.58;;
21675;SDS011;10999;51.332;9.458;2023-03-14T03:03:22;4.40;;;1.30;;
21675;SDS011;10999;51.332;9.458;2023-03-14T03:05:49;6.10;;;1.60;;
21675;SDS011;10999;51.332;9.458;2023-03-14T03:08:18;5.28;;;1.23;;
21675;SDS011;10999;51.332;9.458;2023-03-14T03:10:46;5.00;;;1.73;;
21675;SDS011;10999;51.332;9.458;2023-03-14T03:13:13;5.60;;;1.85;;
21675;SDS011;10999;51.332;9.458;2023-03-14T03:15:40;5.72;;;1.42;;
21675;SDS011;10999;51.332;9.458;2023-03-14T03:18:07;8.20;;;2.00;;
21675;SDS011;10999;51.332;9.458;2023-03-14T03:20:34;5.20;;;1.48;;
21675;SDS011;10999;51.332;9.458;2023-03-14T03:23:01;8.45;;;1.52;;
21675;SDS011;10999;51.332;9.458;2023-03-14T03:25:28;5.22;;;1.48;;
21675;SDS011;10999;51.332;9.458;2023-03-14T03:27:55;6.15;;;1.70;;
21675;SDS011;10999;51.332;9.458;2023-03-14T03:30:22;5.25;;;1.70;;
21675;SDS011;10999;51.332;9.458;2023-03-14T03:32:49;4.93;;;1.33;;
21675;SDS011;10999;51.332;9.458;2023-03-14T03:35:16;6.22;;;1.40;;
21675;SDS011;10999;51.332;9.458;2023-03-14T03:37:43;4.80;;;1.30;;
21675;SDS011;10999;51.332;9.458;2023-03-14T03:40:09;7.97;;;1.52;;
21675;SDS011;10999;51.332;9.458;2023-03-14T03:42:36;5.18;;;1.60;;
21675;SDS011;10999;51.332;9.458;2023-03-14T03:45:03;4.97;;;1.17;;
21675;SDS011;10999;51.332;9.458;2023-03-14T03:47:30;5.28;;;1.20;;
21675;SDS011;10999;51.332;9.458;2023-03-14T03:49:57;4.40;;;1.20;;
21675;SDS011;10999;51.332;9.458;2023-03-14T03:52:24;3.72;;;0.95;;
21675;SDS011;10999;51.332;9.458;2023-03-14T03:54:50;4.20;;;1.30;;
21675;SDS011;10999;51.332;9.458;2023-03-14T03:57:17;2.75;;;1.08;;
21675;SDS011;10999;51.332;9.458;2023-03-14T03:59:44;3.35;;;1.20;;
21675;SDS011;10999;51.332;9.458;2023-03-14T04:02:10;3.45;;;1.25;;
21675;SDS011;10999;51.332;9.458;2023-03-14T04:04:37;5.95;;;1.00;;
21675;SDS011;10999;51.332;9.458;2023-03-14T04:07:06;3.08;;;1.17;;
21675;SDS011;10999;51.332;9.458;2023-03-14T04:09:32;4.43;;;1.25;;
21675;SDS011;10999;51.332;9.458;2023-03-14T04:11:59;4.82;;;1.33;;
21675;SDS011;10999;51.332;9.458;2023-03-14T04:14:26;3.88;;;1.30;;
21675;SDS011;10999;51.332;9.458;2023-03-14T04:16:53;6.68;;;1.60;;
21675;SDS011;10999;51.332;9.458;2023-03-14T04:19:20;3.80;;;1.38;;
21675;SDS011;10999;51.332;9.458;2023-03-14T04:21:47;5.22;;;1.38;;
21675;SDS011;10999;51.332;9.458;2023-03-14T04:24:13;4.10;;;1.42;;
21675;SDS011;10999;51.332;9.458;2023-03-14T04:26:40;6.38;;;1.20;;
21675;SDS011;10999;51.332;9.458;2023-03-14T04:29:07;3.58;;;1.20;;
21675;SDS011;10999;51.332;9.458;2023-03-14T04:31:35;4.75;;;1.10;;
21675;SDS011;10999;51.332;9.458;2023-03-14T04:34:01;5.10;;;1.10;;
21675;SDS011;10999;51.332;9.458;2023-03-14T04:36:28;4.93;;;1.52;;
21675;SDS011;10999;51.332;9.458;2023-03-14T04:38:55;3.85;;;1.25;;
21675;SDS011;10999;51.332;9.458;2023-03-14T04:41:21;4.38;;;1.17;;
21675;SDS011;10999;51.332;9.458;2023-03-14T04:43:48;5.13;;;1.38;;
21675;SDS011;10999;51.332;9.458;2023-03-14T04:46:15;5.28;;;1.50;;
21675;SDS011;10999;51.332;9.458;2023-03-14T04:48:41;3.92;;;1.20;;
21675;SDS011;10999;51.332;9.458;2023-03-14T04:51:08;3.50;;;1.27;;
21675;SDS011;10999;51.332;9.458;2023-03-14T04:53:35;3.85;;;1.20;;
21675;SDS011;10999;51.332;9.458;2023-03-14T04:56:03;3.30;;;1.05;;
21675;SDS011;10999;51.332;9.458;2023-03-14T04:58:30;6.97;;;1.20;;
21675;SDS011;10999;51.332;9.458;2023-03-14T05:01:01;4.93;;;1.10;;
21675;SDS011;10999;51.332;9.458;2023-03-14T05:03:30;3.58;;;1.00;;
21675;SDS011;10999;51.332;9.458;2023-03-14T05:05:57;4.60;;;1.05;;
21675;SDS011;10999;51.332;9.458;2023-03-14T05:08:24;3.97;;;1.17;;
21675;SDS011;10999;51.332;9.458;2023-03-14T05:10:52;5.40;;;1.20;;
21675;SDS011;10999;51.332;9.458;2023-03-14T05:13:20;2.97;;;1.05;;
21675;SDS011;10999;51.332;9.458;2023-03-14T05:15:46;5.72;;;1.38;;
21675;SDS011;10999;51.332;9.458;2023-03-14T05:18:13;6.53;;;1.00;;
21675;SDS011;10999;51.332;9.458;2023-03-14T05:20:40;6.13;;;1.45;;
21675;SDS011;10999;51.332;9.458;2023-03-14T05:23:09;3.28;;;1.10;;
21675;SDS011;10999;51.332;9.458;2023-03-14T05:25:36;4.70;;;1.10;;
21675;SDS011;10999;51.332;9.458;2023-03-14T05:28:02;6.70;;;1.20;;
21675;SDS011;10999;51.332;9.458;2023-03-14T05:30:29;4.50;;;0.73;;
21675;SDS011;10999;51.332;9.458;2023-03-14T05:32:57;3.55;;;1.08;;
21675;SDS011;10999;51.332;9.458;2023-03-14T05:35:23;1.40;;;0.80;;
21675;SDS011;10999;51.332;9.458;2023-03-14T05:37:50;4.07;;;0.98;;
21675;SDS011;10999;51.332;9.458;2023-03-14T05:40:17;5.53;;;0.98;;
21675;SDS011;10999;51.332;9.458;2023-03-14T05:42:43;3.58;;;1.00;;
21675;SDS011;10999;51.332;9.458;2023-03-14T05:45:10;3.60;;;1.00;;
21675;SDS011;10999;51.332;9.458;2023-03-14T05:47:37;3.50;;;1.15;;
21675;SDS011;10999;51.332;9.458;2023-03-14T05:50:04;1.48;;;0.65;;
21675;SDS011;10999;51.332;9.458;2023-03-14T05:52:31;4.43;;;0.93;;
21675;SDS011;10999;51.332;9.458;2023-03-14T05:54:58;8.13;;;1.60;;
21675;SDS011;10999;51.332;9.458;2023-03-14T05:57:24;4.80;;;0.93;;
21675;SDS011;10999;51.332;9.458;2023-03-14T05:59:51;4.47;;;1.00;;
21675;SDS011;10999;51.332;9.458;2023-03-14T06:02:18;4.80;;;1.40;;
21675;SDS011;10999;51.332;9.458;2023-03-14T06:04:44;3.22;;;0.98;;
21675;SDS011;10999;51.332;9.458;2023-03-14T06:07:11;5.97;;;1.00;;
21675;SDS011;10999;51.332;9.458;2023-03-14T06:09:38;3.70;;;1.10;;
21675;SDS011;10999;51.332;9.458;2023-03-14T06:12:05;3.30;;;0.93;;
21675;SDS011;10999;51.332;9.458;2023-03-14T06:14:32;3.45;;;1.10;;
21675;SDS011;10999;51.332;9.458;2023-03-14T06:16:59;2.83;;;1.17;;
21675;SDS011;10999;51.332;9.458;2023-03-14T06:19:26;4.32;;;1.20;;
21675;SDS011;10999;51.332;9.458;2023-03-14T06:21:53;6.25;;;1.70;;
21675;SDS011;10999;51.332;9.458;2023-03-14T06:24:19;5.50;;;1.30;;
21675;SDS011;10999;51.332;9.458;2023-03-14T06:26:46;3.33;;;1.20;;
21675;SDS011;10999;51.332;9.458;2023-03-14T06:29:15;5.85;;;1.20;;
21675;SDS011;10999;51.332;9.458;2023-03-14T06:31:41;5.15;;;1.10;;
21675;SDS011;10999;51.332;9.458;2023-03-14T06:34:08;4.03;;;0.85;;
21675;SDS011;10999;51.332;9.458;2023-03-14T06:36:35;5.55;;;1.00;;
21675;SDS011;10999;51.332;9.458;2023-03-14T06:39:02;3.55;;;1.10;;
21675;SDS011;10999;51.332;9.458;2023-03-14T06:41:29;7.88;;;1.40;;
21675;SDS011;10999;51.332;9.458;2023-03-14T06:43:56;6.47;;;1.70;;
21675;SDS011;10999;51.332;9.458;2023-03-14T06:46:22;3.78;;;0.85;;
21675;SDS011;10999;51.332;9.458;2023-03-14T06:48:49;6.55;;;1.02;;
21675;SDS011;10999;51.332;9.458;2023-03-14T06:51:16;3.65;;;1.00;;
21675;SDS011;10999;51.332;9.458;2023-03-14T06:53:42;1.73;;;0.80;;
21675;SDS011;10999;51.332;9.458;2023-03-14T06:56:09;5.57;;;1.20;;
21675;SDS011;10999;51.332;9.458;2023-03-14T06:58:36;3.08;;;0.90;;
21675;SDS011;10999;51.332;9.458;2023-03-14T07:01:03;5.50;;;1.13;;
21675;SDS011;10999;51.332;9.458;2023-03-14T07:03:30;3.67;;;1.13;;
21675;SDS011;10999;51.332;9.458;2023-03-14T07:05:56;4.93;;;1.30;;
21675;SDS011;10999;51.332;9.458;2023-03-14T07:08:23;4.03;;;1.10;;
21675;SDS011;10999;51.332;9.458;2023-03-14T07:10:50;3.13;;;0.98;;
21675;SDS011;10999;51.332;9.458;2023-03-14T07:13:16;5.28;;;0.98;;
21675;SDS011;10999;51.332;9.458;2023-03-14T07:15:44;4.25;;;1.00;;
21675;SDS011;10999;51.332;9.458;2023-03-14T07:18:11;4.00;;;0.90;;
21675;SDS011;10999;51.332;9.458;2023-03-14T07:20:38;3.40;;;0.82;;
21675;SDS011;10999;51.332;9.458;2023-03-14T07:23:04;4.82;;;1.20;;
21675;SDS011;10999;51.332;9.458;2023-03-14T07:25:31;3.95;;;1.08;;
21675;SDS011;10999;51.332;9.458;2023-03-14T07:27:58;3.28;;;0.85;;
21675;SDS011;10999;51.332;9.458;2023-03-14T07:30:24;2.97;;;0.80;;
21675;SDS011;10999;51.332;9.458;2023-03-14T07:32:51;4.35;;;1.00;;
21675;SDS011;10999;51.332;9.458;2023-03-14T07:35:18;2.92;;;0.70;;
21675;SDS011;10999;51.332;9.458;2023-03-14T07:37:45;2.63;;;0.70;;
21675;SDS011;10999;51.332;9.458;2023-03-14T07:40:11;4.70;;;0.98;;
21675;SDS011;10999;51.332;9.458;2023-03-14T07:42:41;2.78;;;0.73;;
21675;SDS011;10999;51.332;9.458;2023-03-14T07:45:09;6.28;;;1.10;;
21675;SDS011;10999;51.332;9.458;2023-03-14T07:47:37;5.03;;;1.08;;
21675;SDS011;10999;51.332;9.458;2023-03-14T07:50:04;1.77;;;0.65;;
21675;SDS011;10999;51.332;9.458;2023-03-14T07:52:31;2.38;;;0.68;;
21675;SDS011;10999;51.332;9.458;2023-03-14T07:54:58;3.47;;;0.80;;
21675;SDS011;10999;51.332;9.458;2023-03-14T07:57:25;3.78;;;1.02;;
21675;SDS011;10999;51.332;9.458;2023-03-14T07:59:51;2.33;;;0.90;;
21675;SDS011;10999;51.332;9.458;2023-03-14T08:02:18;5.68;;;1.10;;
21675;SDS011;10999;51.332;9.458;2023-03-14T08:04:48;2.85;;;0.75;;
21675;SDS011;10999;51.332;9.458;2023-03-14T08:07:15;3.38;;;0.95;;
21675;SDS011;10999;51.332;9.458;2023-03-14T08:09:42;4.28;;;0.90;;
21675;SDS011;10999;51.332;9.458;2023-03-14T08:12:09;3.30;;;0.80;;
21675;SDS011;10999;51.332;9.458;2023-03-14T08:14:35;2.97;;;0.90;;
21675;SDS011;10999;51.332;9.458;2023-03-14T08:17:02;2.45;;;0.57;;
21675;SDS011;10999;51.332;9.458;2023-03-14T08:19:29;5.47;;;1.15;;
21675;SDS011;10999;51.332;9.458;2023-03-14T08:21:55;4.78;;;1.00;;
21675;SDS011;10999;51.332;9.458;2023-03-14T08:24:22;2.83;;;0.70;;
21675;SDS011;10999;51.332;9.458;2023-03-14T08:26:50;1.40;;;0.50;;
21675;SDS011;10999;51.332;9.458;2023-03-14T08:29:16;3.03;;;0.60;;
21675;SDS011;10999;51.332;9.458;2023-03-14T08:31:43;2.72;;;0.40;;
21675;SDS011;10999;51.332;9.458;2023-03-14T08:34:10;2.58;;;0.50;;
21675;SDS011;10999;51.332;9.458;2023-03-14T08:36:37;2.38;;;0.32;;
21675;SDS011;10999;51.332;9.458;2023-03-14T08:39:04;1.13;;;0.40;;
21675;SDS011;10999;51.332;9.458;2023-03-14T08:41:33;0.52;;;0.22;;
21675;SDS011;10999;51.332;9.458;2023-03-14T08:44:06;1.58;;;0.50;;
21675;SDS011;10999;51.332;9.458;2023-03-14T08:46:34;3.15;;;0.50;;
21675;SDS011;10999;51.332;9.458;2023-03-14T08:49:01;1.65;;;0.45;;
21675;SDS011;10999;51.332;9.458;2023-03-14T08:51:27;1.52;;;0.30;;
21675;SDS011;10999;51.332;9.458;2023-03-14T08:53:54;0.80;;;0.20;;
21675;SDS011;10999;51.332;9.458;2023-03-14T08:56:21;2.72;;;0.40;;
21675;SDS011;10999;51.332;9.458;2023-03-14T08:58:51;0.30;;;0.30;;
21675;SDS011;10999;51.332;9.458;2023-03-14T09:01:17;3.33;;;0.35;;
21675;SDS011;10999;51.332;9.458;2023-03-14T09:03:45;1.40;;;0.22;;
21675;SDS011;10999;51.332;9.458;2023-03-14T09:06:14;2.78;;;0.40;;
21675;SDS011;10999;51.332;9.458;2023-03-14T09:08:44;7.30;;;0.50;;
21675;SDS011;10999;51.332;9.458;2023-03-14T09:11:11;1.02;;;0.20;;
21675;SDS011;10999;51.332;9.458;2023-03-14T09:13:39;0.52;;;0.20;;
21675;SDS011;10999;51.332;9.458;2023-03-14T09:16:07;0.43;;;0.13;;
21675;SDS011;10999;51.332;9.458;2023-03-14T09:18:34;1.90;;;0.30;;
21675;SDS011;10999;51.332;9.458;2023-03-14T09:21:01;1.50;;;0.20;;
21675;SDS011;10999;51.332;9.458;2023-03-14T09:23:28;1.75;;;0.38;;
21675;SDS011;10999;51.332;9.458;2023-03-14T09:25:59;0.52;;;0.17;;
21675;SDS011;10999;51.332;9.458;2023-03-14T09:28:26;0.88;;;0.22;;
21675;SDS011;10999;51.332;9.458;2023-03-14T09:30:53;2.80;;;0.30;;
21675;SDS011;10999;51.332;9.458;2023-03-14T09:33:20;2.72;;;0.57;;
21675;SDS011;10999;51.332;9.458;2023-03-14T09:35:47;0.80;;;0.20;;
21675;SDS011;10999;51.332;9.458;2023-03-14T09:38:14;0.60;;;0.30;;
21675;SDS011;10999;51.332;9.458;2023-03-14T09:40:41;1.45;;;0.30;;
21675;SDS011;10999;51.332;9.458;2023-03-14T09:43:09;1.17;;;0.30;;
21675;SDS011;10999;51.332;9.458;2023-03-14T09:45:40;1.00;;;0.30;;
21675;SDS011;10999;51.332;9.458;2023-03-14T09:48:14;2.10;;;0.85;;
21675;SDS011;10999;51.332;9.458;2023-03-14T09:50:49;1.95;;;0.63;;
21675;SDS011;10999;51.332;9.458;2023-03-14T09:53:19;1.20;;;0.50;;
21675;SDS011;10999;51.332;9.458;2023-03-14T09:55:50;1.08;;;0.43;;
21675;SDS011;10999;51.332;9.458;2023-03-14T09:58:22;2.13;;;0.50;;
21675;SDS011;10999;51.332;9.458;2023-03-14T10:00:51;3.03;;;0.68;;
21675;SDS011;10999;51.332;9.458;2023-03-14T10:03:24;3.63;;;0.68;;
21675;SDS011;10999;51.332;9.458;2023-03-14T10:05:55;1.40;;;0.70;;
21675;SDS011;10999;51.332;9.458;2023-03-14T10:08:22;3.15;;;0.60;;
21675;SDS011;10999;51.332;9.458;2023-03-14T10:10:49;1.45;;;0.70;;
21675;SDS011;10999;51.332;9.458;2023-03-14T10:15:55;2.45;;;0.55;;
21675;SDS011;10999;51.332;9.458;2023-03-14T10:18:30;2.28;;;0.70;;
21675;SDS011;10999;51.332;9.458;2023-03-14T10:21:09;1.73;;;0.80;;
21675;SDS011;10999;51.332;9.458;2023-03-14T10:23:53;1.77;;;0.50;;
21675;SDS011;10999;51.332;9.458;2023-03-14T10:26:24;1.55;;;0.50;;
21675;SDS011;10999;51.332;9.458;2023-03-14T10:29:01;1.17;;;0.60;;
21675;SDS011;10999;51.332;9.458;2023-03-14T10:31:54;2.88;;;0.82;;
21675;SDS011;10999;51.332;9.458;2023-03-14T10:34:26;5.55;;;0.80;;
21675;SDS011;10999;51.332;9.458;2023-03-14T10:36:58;2.58;;;0.98;;
21675;SDS011;10999;51.332;9.458;2023-03-14T10:39:51;3.15;;;1.00;;
21675;SDS011;10999;51.332;9.458;2023-03-14T10:42:21;4.50;;;1.13;;
21675;SDS011;10999;51.332;9.458;2023-03-14T10:44:56;2.65;;;0.70;;
21675;SDS011;10999;51.332;9.458;2023-03-14T10:47:26;3.03;;;0.93;;
21675;SDS011;10999;51.332;9.458;2023-03-14T10:49:56;2.50;;;0.88;;
21675;SDS011;10999;51.332;9.458;2023-03-14T10:52:46;2.85;;;0.75;;
21675;SDS011;10999;51.332;9.458;2023-03-14T10:55:28;2.20;;;0.73;;
21675;SDS011;10999;51.332;9.458;2023-03-14T10:58:19;1.85;;;0.80;;
21675;SDS011;10999;51.332;9.458;2023-03-14T11:00:50;2.33;;;0.70;;
21675;SDS011;10999;51.332;9.458;2023-03-14T11:03:19;5.15;;;2.05;;
21675;SDS011;10999;51.332;9.458;2023-03-14T11:05:57;5.75;;;1.10;;
21675;SDS011;10999;51.332;9.458;2023-03-14T11:08:42;2.30;;;0.70;;
21675;SDS011;10999;51.332;9.458;2023-03-14T11:11:23;0.75;;;0.40;;
21675;SDS011;10999;51.332;9.458;2023-03-14T11:14:00;0.75;;;0.40;;
21675;SDS011;10999;51.332;9.458;2023-03-14T11:16:42;1.08;;;0.35;;
21675;SDS011;10999;51.332;9.458;2023-03-14T11:27:48;1.15;;;0.22;;
21675;SDS011;10999;51.332;9.458;2023-03-14T11:33:03;0.73;;;0.30;;
21675;SDS011;10999;51.332;9.458;2023-03-14T11:36:09;1.70;;;0.20;;
21675;SDS011;10999;51.332;9.458;2023-03-14T11:38:43;0.25;;;0.10;;
21675;SDS011;10999;51.332;9.458;2023-03-14T11:41:33;1.05;;;0.45;;
21675;SDS011;10999;51.332;9.458;2023-03-14T11:44:15;2.78;;;0.40;;
21675;SDS011;10999;51.332;9.458;2023-03-14T11:47:29;0.93;;;0.30;;
21675;SDS011;10999;51.332;9.458;2023-03-14T11:52:37;1.05;;;0.47;;
21675;SDS011;10999;51.332;9.458;2023-03-14T11:55:12;1.38;;;0.40;;
21675;SDS011;10999;51.332;9.458;2023-03-14T11:58:00;1.50;;;0.20;;
21675;SDS011;10999;51.332;9.458;2023-03-14T12:00:35;3.08;;;0.15;;
21675;SDS011;10999;51.332;9.458;2023-03-14T12:08:39;0.82;;;0.20;;
21675;SDS011;10999;51.332;9.458;2023-03-14T12:14:00;0.65;;;0.20;;
21675;SDS011;10999;51.332;9.458;2023-03-14T12:16:32;2.55;;;0.80;;
21675;SDS011;10999;51.332;9.458;2023-03-14T12:21:53;0.60;;;0.25;;
21675;SDS011;10999;51.332;9.458;2023-03-14T12:24:29;0.32;;;0.15;;
21675;SDS011;10999;51.332;9.458;2023-03-14T12:27:00;1.13;;;0.40;;
21675;SDS011;10999;51.332;9.458;2023-03-14T12:29:28;0.55;;;0.22;;
21675;SDS011;10999;51.332;9.458;2023-03-14T12:34:32;0.40;;;0.20;;
21675;SDS011;10999;51.332;9.458;2023-03-14T12:37:12;0.43;;;0.10;;
21675;SDS011;10999;51.332;9.458;2023-03-14T12:39:58;0.00;;;0.00;;
21675;SDS011;10999;51.332;9.458;2023-03-14T12:50:45;1.75;;;0.38;;
21675;SDS011;10999;51.332;9.458;2023-03-14T12:53:24;0.20;;;0.20;;
21675;SDS011;10999;51.332;9.458;2023-03-14T12:58:35;2.30;;;0.20;;
21675;SDS011;10999;51.332;9.458;2023-03-14T13:01:05;0.38;;;0.10;;
21675;SDS011;10999;51.332;9.458;2023-03-14T13:03:45;0.40;;;0.10;;
21675;SDS011;10999;51.332;9.458;2023-03-14T13:06:16;0.55;;;0.10;;
21675;SDS011;10999;51.332;9.458;2023-03-14T13:12:01;0.60;;;0.30;;
21675;SDS011;10999;51.332;9.458;2023-03-14T13:14:48;1.10;;;0.30;;
21675;SDS011;10999;51.332;9.458;2023-03-14T13:17:28;0.17;;;0.17;;
21675;SDS011;10999;51.332;9.458;2023-03-14T13:20:03;0.10;;;0.10;;
21675;SDS011;10999;51.332;9.458;2023-03-14T13:22:38;0.10;;;0.00;;
21675;SDS011;10999;51.332;9.458;2023-03-14T13:25:05;0.35;;;0.08;;
21675;SDS011;10999;51.332;9.458;2023-03-14T13:27:35;0.47;;;0.10;;
21675;SDS011;10999;51.332;9.458;2023-03-14T13:30:12;0.10;;;0.10;;
21675;SDS011;10999;51.332;9.458;2023-03-14T13:32:46;0.22;;;0.10;;
21675;SDS011;10999;51.332;9.458;2023-03-14T13:35:15;0.10;;;0.00;;
21675;SDS011;10999;51.332;9.458;2023-03-14T13:37:43;0.00;;;0.00;;
21675;SDS011;10999;51.332;9.458;2023-03-14T13:43:14;0.20;;;0.00;;
21675;SDS011;10999;51.332;9.458;2023-03-14T13:45:45;1.05;;;0.22;;
21675;SDS011;10999;51.332;9.458;2023-03-14T13:48:15;0.17;;;0.10;;
21675;SDS011;10999;51.332;9.458;2023-03-14T13:50:48;2.15;;;0.40;;
21675;SDS011;10999;51.332;9.458;2023-03-14T13:53:18;2.83;;;0.40;;
21675;SDS011;10999;51.332;9.458;2023-03-14T13:55:45;3.60;;;0.55;;
21675;SDS011;10999;51.332;9.458;2023-03-14T13:58:46;0.82;;;0.32;;
21675;SDS011;10999;51.332;9.458;2023-03-14T14:03:42;1.27;;;0.40;;
21675;SDS011;10999;51.332;9.458;2023-03-14T14:09:00;5.15;;;0.93;;
21675;SDS011;10999;51.332;9.458;2023-03-14T14:14:25;7.65;;;0.82;;
21675;SDS011;10999;51.332;9.458;2023-03-14T14:17:08;2.80;;;0.60;;
21675;SDS011;10999;51.332;9.458;2023-03-14T14:22:08;4.82;;;0.70;;
21675;SDS011;10999;51.332;9.458;2023-03-14T14:24:36;4.47;;;0.65;;
21675;SDS011;10999;51.332;9.458;2023-03-14T14:27:08;8.43;;;0.98;;
21675;SDS011;10999;51.332;9.458;2023-03-14T14:29:56;1.73;;;0.55;;
21675;SDS011;10999;51.332;9.458;2023-03-14T14:32:38;1.90;;;0.70;;
21675;SDS011;10999;51.332;9.458;2023-03-14T14:35:07;2.53;;;0.75;;
21675;SDS011;10999;51.332;9.458;2023-03-14T14:37:41;4.55;;;1.17;;
21675;SDS011;10999;51.332;9.458;2023-03-14T14:40:17;7.30;;;1.23;;
21675;SDS011;10999;51.332;9.458;2023-03-14T14:42:47;2.85;;;1.02;;
21675;SDS011;10999;51.332;9.458;2023-03-14T14:45:19;4.38;;;0.85;;
21675;SDS011;10999;51.332;9.458;2023-03-14T14:47:51;4.85;;;1.10;;
21675;SDS011;10999;51.332;9.458;2023-03-14T14:50:32;5.82;;;0.60;;
21675;SDS011;10999;51.332;9.458;2023-03-14T14:53:03;3.45;;;0.70;;
21675;SDS011;10999;51.332;9.458;2023-03-14T14:56:04;3.22;;;0.68;;
21675;SDS011;10999;51.332;9.458;2023-03-14T14:58:45;5.45;;;0.95;;
21675;SDS011;10999;51.332;9.458;2023-03-14T15:01:20;4.25;;;0.82;;
21675;SDS011;10999;51.332;9.458;2023-03-14T15:03:50;5.63;;;0.77;;
21675;SDS011;10999;51.332;9.458;2023-03-14T15:06:18;6.25;;;1.13;;
21675;SDS011;10999;51.332;9.458;2023-03-14T15:08:46;3.85;;;0.80;;
21675;SDS011;10999;51.332;9.458;2023-03-14T15:11:19;5.60;;;1.00;;
21675;SDS011;10999;51.332;9.458;2023-03-14T15:13:50;5.47;;;0.82;;
21675;SDS011;10999;51.332;9.458;2023-03-14T15:16:22;2.90;;;0.63;;
21675;SDS011;10999;51.332;9.458;2023-03-14T15:18:54;2.92;;;0.68;;
21675;SDS011;10999;51.332;9.458;2023-03-14T15:21:22;5.45;;;0.80;;
21675;SDS011;10999;51.332;9.458;2023-03-14T15:23:50;3.92;;;0.57;;
21675;SDS011;10999;51.332;9.458;2023-03-14T15:26:21;7.22;;;1.00;;
21675;SDS011;10999;51.332;9.458;2023-03-14T15:28:50;6.25;;;0.82;;
21675;SDS011;10999;51.332;9.458;2023-03-14T15:31:17;10.05;;;1.88;;
21675;SDS011;10999;51.332;9.458;2023-03-14T15:33:45;11.52;;;1.35;;
21675;SDS011;10999;51.332;9.458;2023-03-14T15:36:28;7.63;;;1.13;;
21675;SDS011;10999;51.332;9.458;2023-03-14T15:38:57;5.10;;;1.23;;
21675;SDS011;10999;51.332;9.458;2023-03-14T15:41:25;6.88;;;1.13;;
21675;SDS011;10999;51.332;9.458;2023-03-14T15:43:54;5.45;;;1.05;;
21675;SDS011;10999;51.332;9.458;2023-03-14T15:46:21;9.60;;;0.98;;
21675;SDS011;10999;51.332;9.458;2023-03-14T15:48:49;7.00;;;0.80;;
21675;SDS011;10999;51.332;9.458;2023-03-14T15:51:17;4.03;;;0.80;;
21675;SDS011;10999;51.332;9.458;2023-03-14T15:53:45;7.78;;;1.20;;
21675;SDS011;10999;51.332;9.458;2023-03-14T15:56:12;7.63;;;1.77;;
21675;SDS011;10999;51.332;9.458;2023-03-14T15:58:42;9.27;;;1.33;;
21675;SDS011;10999;51.332;9.458;2023-03-14T16:01:13;9.95;;;1.48;;
21675;SDS011;10999;51.332;9.458;2023-03-14T16:03:45;6.28;;;1.45;;
21675;SDS011;10999;51.332;9.458;2023-03-14T16:06:13;4.97;;;0.95;;
21675;SDS011;10999;51.332;9.458;2023-03-14T16:08:40;9.48;;;1.67;;